createdAt,value
2023-10-24T00:00:18.591Z,93882.97
2023-10-24T00:02:47.049Z,93883.91
2023-10-24T00:05:13.878Z,93888.72
2023-10-24T00:07:40.944Z,93892.28
2023-10-24T00:10:08.829Z,93886.97
2023-10-24T00:12:35.985Z,93884.56
2023-10-24T00:15:03.052Z,93882.13
2023-10-24T00:17:30.091Z,93882.63
2023-10-24T00:19:58.498Z,93880.88
2023-10-24T00:22:25.678Z,93878.13
2023-10-24T00:24:52.699Z,93883.41
2023-10-24T00:27:19.685Z,93881.50
2023-10-24T00:29:46.743Z,93885.66
2023-10-24T00:32:13.881Z,93876.00
2023-10-24T00:34:41.206Z,93873.56
2023-10-24T00:37:09.707Z,93871.00
2023-10-24T00:39:36.586Z,93876.28
2023-10-24T00:42:06.028Z,93869.38
2023-10-24T00:44:33.926Z,93869.25
2023-10-24T00:47:02.040Z,93874.03
2023-10-24T00:49:29.197Z,93873.88
2023-10-24T00:51:57.526Z,93869.19
2023-10-24T00:54:26.404Z,93870.16
2023-10-24T00:56:53.549Z,93870.34
2023-10-24T00:59:22.187Z,93875.63
2023-10-24T01:01:50.276Z,93874.34
2023-10-24T01:04:19.506Z,93867.25
2023-10-24T01:06:46.661Z,93876.09
2023-10-24T01:09:13.718Z,93877.84
2023-10-24T01:11:42.324Z,93880.25
2023-10-24T01:14:09.574Z,93876.09
2023-10-24T01:16:42.884Z,93872.19
2023-10-24T01:19:10.459Z,93874.28
2023-10-24T01:21:37.644Z,93870.44
2023-10-24T01:24:07.110Z,93870.44
2023-10-24T01:26:34.478Z,93864.00
2023-10-24T01:29:01.557Z,93871.03
2023-10-24T01:31:28.784Z,93874.38
2023-10-24T01:33:56.527Z,93866.66
2023-10-24T01:36:23.513Z,93865.53
2023-10-24T01:38:50.553Z,93861.19
2023-10-24T01:41:18.872Z,93853.91
2023-10-24T01:43:45.881Z,93868.03
2023-10-24T01:46:13.035Z,93868.81
2023-10-24T01:48:41.615Z,93861.03
2023-10-24T01:51:08.546Z,93860.25
2023-10-24T01:53:35.642Z,93865.06
2023-10-24T01:56:02.627Z,93857.16
2023-10-24T01:58:31.169Z,93866.25
2023-10-24T02:00:58.021Z,93863.28
2023-10-24T02:03:25.295Z,93867.22
2023-10-24T02:05:52.362Z,93873.19
2023-10-24T02:08:19.421Z,93862.56
2023-10-24T02:10:46.476Z,93864.84
2023-10-24T02:13:16.082Z,93857.97
2023-10-24T02:15:44.822Z,93851.34
2023-10-24T02:18:11.815Z,93859.97
2023-10-24T02:20:39.135Z,93862.22
2023-10-24T02:23:06.232Z,93854.03
2023-10-24T02:25:36.773Z,93847.44
2023-10-24T02:28:04.897Z,93853.38
2023-10-24T02:30:32.151Z,93859.19
2023-10-24T02:33:04.021Z,93857.88
2023-10-24T02:35:31.258Z,93862.34
2023-10-24T02:37:58.271Z,93856.75
2023-10-24T02:40:25.460Z,93862.84
2023-10-24T02:42:52.572Z,93859.13
2023-10-24T02:45:19.709Z,93861.69
2023-10-24T02:47:46.832Z,93868.59
2023-10-24T02:50:15.453Z,93863.78
2023-10-24T02:52:42.582Z,93865.41
2023-10-24T02:55:10.298Z,93870.91
2023-10-24T02:57:37.334Z,93873.66
2023-10-24T03:00:05.722Z,93872.56
2023-10-24T03:02:33.989Z,93875.41
2023-10-24T03:05:01.165Z,93876.00
2023-10-24T03:07:29.726Z,93877.44
2023-10-24T03:09:56.700Z,93884.66
2023-10-24T03:12:23.770Z,93878.44
2023-10-24T03:14:50.843Z,93885.31
2023-10-24T03:17:17.948Z,93894.44
2023-10-24T03:19:45.189Z,93890.75
2023-10-24T03:22:12.269Z,93896.22
2023-10-24T03:24:41.040Z,93905.06
2023-10-24T03:27:13.169Z,93900.22
2023-10-24T03:29:41.814Z,93904.38
2023-10-24T03:32:08.806Z,93904.22
2023-10-24T03:34:37.024Z,93909.03
2023-10-24T03:37:04.464Z,93911.25
2023-10-24T03:39:31.541Z,93909.78
2023-10-24T03:42:00.151Z,93909.34
2023-10-24T03:44:26.854Z,93905.66
2023-10-24T03:47:09.238Z,93904.22
2023-10-24T03:49:36.501Z,93906.28
2023-10-24T03:52:03.970Z,93908.47
2023-10-24T03:54:32.491Z,93905.56
2023-10-24T03:57:01.489Z,93902.72
2023-10-24T03:59:28.521Z,93916.94
2023-10-24T04:01:55.620Z,93917.22
2023-10-24T04:04:22.742Z,93915.78
2023-10-24T04:06:49.767Z,93913.81
2023-10-24T04:09:31.387Z,93912.72
2023-10-24T04:12:06.176Z,93908.03
2023-10-24T04:14:33.246Z,93913.97
2023-10-24T04:17:00.705Z,93914.75
2023-10-24T04:19:28.097Z,93912.38
2023-10-24T04:21:55.418Z,93916.13
2023-10-24T04:24:22.463Z,93918.31
2023-10-24T04:26:49.473Z,93911.88
2023-10-24T04:29:17.850Z,93917.00
2023-10-24T04:31:44.975Z,93921.69
2023-10-24T04:34:12.086Z,93931.69
2023-10-24T04:36:39.164Z,93928.81
2023-10-24T04:39:06.396Z,93921.75
2023-10-24T04:41:33.659Z,93928.00
2023-10-24T04:44:00.649Z,93934.53
2023-10-24T04:46:29.184Z,93936.28
2023-10-24T04:48:56.317Z,93933.72
2023-10-24T04:51:23.416Z,93941.34
2023-10-24T04:53:50.667Z,93947.63
2023-10-24T04:56:17.778Z,93946.56
2023-10-24T04:58:44.783Z,93948.31
2023-10-24T05:01:11.861Z,93943.00
2023-10-24T05:03:40.298Z,93950.44
2023-10-24T05:06:07.267Z,93948.50
2023-10-24T05:08:34.745Z,93955.84
2023-10-24T05:11:02.780Z,93964.34
2023-10-24T05:13:29.767Z,93964.06
2023-10-24T05:15:57.105Z,93974.16
2023-10-24T05:18:24.205Z,93971.47
2023-10-24T05:20:52.663Z,93977.28
2023-10-24T05:23:19.606Z,93987.38
2023-10-24T05:25:46.815Z,93990.59
2023-10-24T05:28:13.773Z,93991.69
2023-10-24T05:30:40.976Z,93986.56
2023-10-24T05:33:08.043Z,93984.53
2023-10-24T05:35:35.383Z,93981.41
2023-10-24T05:38:03.862Z,93977.13
2023-10-24T05:40:31.506Z,93983.13
2023-10-24T05:42:58.490Z,93983.03
2023-10-24T05:45:28.443Z,93989.56
2023-10-24T05:47:55.744Z,93990.41
2023-10-24T05:50:22.840Z,93997.19
2023-10-24T05:52:51.095Z,93991.66
2023-10-24T05:55:19.860Z,93993.41
2023-10-24T05:57:47.042Z,93989.88
2023-10-24T06:00:14.671Z,93995.25
2023-10-24T06:02:41.851Z,93984.38
2023-10-24T06:05:09.459Z,93978.44
2023-10-24T06:07:37.212Z,93979.59
2023-10-24T06:10:06.456Z,93965.28
2023-10-24T06:12:35.632Z,93971.28
2023-10-24T06:15:04.773Z,93970.69
2023-10-24T06:17:31.826Z,93976.31
2023-10-24T06:19:58.816Z,93976.00
2023-10-24T06:22:26.567Z,93982.56
2023-10-24T06:24:53.624Z,93985.59
2023-10-24T06:27:20.571Z,93983.75
2023-10-24T06:29:48.997Z,93987.09
2023-10-24T06:32:16.118Z,93982.84
2023-10-24T06:34:43.565Z,93986.16
2023-10-24T06:37:10.563Z,93991.91
2023-10-24T06:39:37.691Z,93985.50
2023-10-24T06:42:05.123Z,93979.25
2023-10-24T06:44:32.268Z,93984.13
2023-10-24T06:47:00.758Z,93985.44
2023-10-24T06:49:28.151Z,93985.13
2023-10-24T06:51:55.278Z,93986.75
2023-10-24T06:54:22.310Z,93986.28
2023-10-24T06:56:49.251Z,93983.06
2023-10-24T06:59:16.855Z,93987.25
2023-10-24T07:01:44.022Z,93980.28
2023-10-24T07:04:12.461Z,93970.59
2023-10-24T07:06:39.588Z,93973.78
2023-10-24T07:09:06.643Z,93972.22
2023-10-24T07:11:33.750Z,93965.06
2023-10-24T07:14:00.974Z,93971.63
2023-10-24T07:16:28.392Z,93958.59
2023-10-24T07:18:55.441Z,93965.06
2023-10-24T07:21:23.936Z,93963.03
2023-10-24T07:23:51.911Z,93957.81
2023-10-24T07:26:20.144Z,93956.72
2023-10-24T07:28:47.278Z,93959.38
2023-10-24T07:31:16.338Z,93960.19
2023-10-24T07:33:44.986Z,93955.63
2023-10-24T07:36:11.980Z,93949.06
2023-10-24T07:38:41.472Z,93950.69
2023-10-24T07:41:09.263Z,93948.78
2023-10-24T07:43:36.266Z,93945.03
2023-10-24T07:46:04.198Z,93948.22
2023-10-24T07:48:31.297Z,93945.81
2023-10-24T07:50:58.882Z,93939.94
2023-10-24T07:53:27.366Z,93939.06
2023-10-24T07:55:55.936Z,93929.91
2023-10-24T07:58:23.017Z,93924.44
2023-10-24T08:00:50.231Z,93922.63
2023-10-24T08:03:17.627Z,93930.28
2023-10-24T08:05:45.380Z,93926.06
2023-10-24T08:08:12.383Z,93932.19
2023-10-24T08:10:39.613Z,93931.41
2023-10-24T08:13:07.933Z,93927.97
2023-10-24T08:15:37.867Z,93931.44
2023-10-24T08:18:05.327Z,93935.69
2023-10-24T08:20:32.372Z,93936.44
2023-10-24T08:22:59.518Z,93942.56
2023-10-24T08:25:26.663Z,93931.34
2023-10-24T08:27:53.587Z,93927.56
2023-10-24T08:30:22.135Z,93925.44
2023-10-24T08:32:49.180Z,93922.66
2023-10-24T08:35:19.593Z,93922.00
2023-10-24T08:37:47.028Z,93919.63
2023-10-24T08:40:14.160Z,93912.22
2023-10-24T08:42:42.031Z,93913.81
2023-10-24T08:45:09.852Z,93902.84
2023-10-24T08:47:38.650Z,93901.72
2023-10-24T08:50:08.007Z,93896.03
2023-10-24T08:52:35.270Z,93889.66
2023-10-24T08:55:05.305Z,93888.94
2023-10-24T08:57:35.807Z,93887.72
2023-10-24T09:00:03.492Z,93887.13
2023-10-24T09:02:31.740Z,93889.38
2023-10-24T09:05:01.275Z,93881.75
2023-10-24T09:07:29.029Z,93883.31
2023-10-24T09:09:55.798Z,93879.97
2023-10-24T09:12:23.137Z,93872.72
2023-10-24T09:14:54.537Z,93868.50
2023-10-24T09:17:24.773Z,93867.78
2023-10-24T09:19:52.402Z,93867.06
2023-10-24T09:22:20.952Z,93865.00
2023-10-24T09:24:49.246Z,93868.25
2023-10-24T09:27:17.422Z,93864.50
2023-10-24T09:29:44.925Z,93857.81
2023-10-24T09:32:16.791Z,93863.03
2023-10-24T09:34:44.313Z,93863.63
2023-10-24T09:37:11.735Z,93858.75
2023-10-24T09:39:54.916Z,93850.25
2023-10-24T09:42:29.286Z,93850.69
2023-10-24T09:44:59.057Z,93847.28
2023-10-24T09:47:27.554Z,93847.75
2023-10-24T09:49:55.433Z,93849.44
2023-10-24T09:52:25.342Z,93845.75
2023-10-24T09:54:54.794Z,93845.06
2023-10-24T09:57:23.456Z,93844.44
2023-10-24T09:59:56.287Z,93845.22
2023-10-24T10:02:24.433Z,93838.66
2023-10-24T10:04:54.754Z,93838.19
2023-10-24T10:07:22.801Z,93832.22
2023-10-24T10:09:54.327Z,93841.78
2023-10-24T10:12:21.697Z,93839.94
2023-10-24T10:14:59.437Z,93827.44
2023-10-24T10:17:33.821Z,93823.50
2023-10-24T10:20:21.088Z,93822.25
2023-10-24T10:23:02.980Z,93817.69
2023-10-24T10:25:51.728Z,93818.78
2023-10-24T10:28:27.755Z,93809.63
2023-10-24T10:32:36.432Z,93812.56
2023-10-24T10:33:48.981Z,93802.31
2023-10-24T10:36:16.768Z,93802.91
2023-10-24T10:38:46.045Z,93796.88
2023-10-24T10:41:36.637Z,93792.41
2023-10-24T10:44:06.548Z,93784.81
2023-10-24T10:46:34.772Z,93783.50
2023-10-24T10:49:04.145Z,93774.25
2023-10-24T10:51:32.919Z,93779.78
2023-10-24T10:54:07.122Z,93770.03
2023-10-24T10:56:38.154Z,93764.22
2023-10-24T10:59:22.569Z,93764.47
2023-10-24T11:01:59.307Z,93770.13
2023-10-24T11:04:26.643Z,93759.84
2023-10-24T11:06:55.044Z,93751.19
2023-10-24T11:09:22.966Z,93748.28
2023-10-24T11:12:27.006Z,93749.41
2023-10-24T11:15:25.249Z,93737.00
2023-10-24T11:17:52.740Z,93730.97
2023-10-24T11:20:23.660Z,93733.09
2023-10-24T11:22:52.166Z,93720.16
2023-10-24T11:25:20.583Z,93713.25
2023-10-24T11:27:51.057Z,93714.06
2023-10-24T11:30:19.614Z,93706.31
2023-10-24T11:32:46.733Z,93710.38
2023-10-24T11:35:13.958Z,93708.84
2023-10-24T11:37:42.425Z,93704.97
2023-10-24T11:40:10.800Z,93707.13
2023-10-24T11:42:37.964Z,93703.75
2023-10-24T11:45:07.463Z,93698.50
2023-10-24T11:47:34.593Z,93695.56
2023-10-24T11:50:01.654Z,93694.25
2023-10-24T11:52:28.788Z,93698.66
2023-10-24T11:54:55.791Z,93694.44
2023-10-24T11:57:26.551Z,93687.22
2023-10-24T11:59:55.319Z,93675.63
2023-10-24T12:02:23.806Z,93673.47
2023-10-24T12:04:51.990Z,93677.72
2023-10-24T12:07:19.572Z,93679.56
2023-10-24T12:09:46.747Z,93676.19
2023-10-24T12:12:17.143Z,93674.06
2023-10-24T12:14:45.172Z,93675.38
2023-10-24T12:17:12.651Z,93670.63
2023-10-24T12:19:41.727Z,93666.97
2023-10-24T12:22:08.961Z,93666.69
2023-10-24T12:24:35.922Z,93658.75
2023-10-24T12:27:03.056Z,93656.09
2023-10-24T12:29:30.121Z,93650.59
2023-10-24T12:31:57.290Z,93660.63
2023-10-24T12:34:24.342Z,93661.19
2023-10-24T12:36:54.798Z,93652.47
2023-10-24T12:39:22.788Z,93650.34
2023-10-24T12:41:50.023Z,93655.13
2023-10-24T12:44:18.439Z,93658.81
2023-10-24T12:46:45.638Z,93659.06
2023-10-24T12:49:12.661Z,93656.66
2023-10-24T12:51:39.608Z,93645.69
2023-10-24T12:54:08.178Z,93653.31
2023-10-24T12:56:36.412Z,93648.81
2023-10-24T12:59:03.653Z,93645.63
2023-10-24T13:01:31.184Z,93647.75
2023-10-24T13:03:58.476Z,93646.13
2023-10-24T13:06:25.587Z,93631.88
2023-10-24T13:08:52.748Z,93625.47
2023-10-24T13:11:21.493Z,93636.91
2023-10-24T13:13:48.822Z,93626.91
2023-10-24T13:16:16.978Z,93625.13
2023-10-24T13:18:44.130Z,93628.16
2023-10-24T13:21:11.063Z,93620.13
2023-10-24T13:23:38.120Z,93625.31
2023-10-24T13:26:05.308Z,93611.38
2023-10-24T13:28:33.898Z,93610.53
2023-10-24T13:31:14.441Z,93601.00
2023-10-24T13:34:12.104Z,93606.22
2023-10-24T13:36:31.210Z,93599.09
2023-10-24T13:38:58.302Z,93593.75
2023-10-24T13:41:28.648Z,93595.31
2023-10-24T13:44:01.485Z,93592.88
2023-10-24T13:46:28.788Z,93589.72
2023-10-24T13:48:57.394Z,93588.63
2023-10-24T13:51:24.484Z,93590.56
2023-10-24T13:53:51.982Z,93587.38
2023-10-24T13:56:18.826Z,93573.75
2023-10-24T13:58:45.610Z,93574.28
2023-10-24T14:01:14.233Z,93565.59
2023-10-24T14:03:41.709Z,93567.59
2023-10-24T14:06:08.677Z,93566.75
2023-10-24T14:08:37.979Z,93568.06
2023-10-24T14:11:05.484Z,93565.44
2023-10-24T14:13:32.505Z,93566.44
2023-10-24T14:15:59.791Z,93565.28
2023-10-24T14:18:28.194Z,93563.59
2023-10-24T14:20:55.238Z,93569.78
2023-10-24T14:23:22.312Z,93569.44
2023-10-24T14:25:49.387Z,93567.72
2023-10-24T14:28:16.629Z,93562.56
2023-10-24T14:30:44.215Z,93565.22
2023-10-24T14:33:11.174Z,93564.75
2023-10-24T14:35:39.739Z,93556.13
2023-10-24T14:38:06.720Z,93550.31
2023-10-24T14:40:34.045Z,93546.00
2023-10-24T14:43:02.085Z,93545.66
2023-10-24T14:45:30.183Z,93542.63
2023-10-24T14:47:57.193Z,93542.91
2023-10-24T14:50:24.329Z,93544.78
2023-10-24T14:52:52.744Z,93538.03
2023-10-24T14:55:20.000Z,93537.81
2023-10-24T14:57:47.022Z,93538.06
2023-10-24T15:00:14.732Z,93536.34
2023-10-24T15:02:42.045Z,93531.84
2023-10-24T15:05:09.810Z,93532.75
2023-10-24T15:07:36.906Z,93544.56
2023-10-24T15:10:06.247Z,93544.25
2023-10-24T15:12:33.245Z,93540.38
2023-10-24T15:15:00.340Z,93550.03
2023-10-24T15:17:27.514Z,93541.47
2023-10-24T15:19:55.747Z,93551.38
2023-10-24T15:22:22.857Z,93553.38
2023-10-24T15:24:50.685Z,93559.81
2023-10-24T15:27:19.561Z,93564.69
2023-10-24T15:29:46.821Z,93559.84
2023-10-24T15:32:15.938Z,93560.22
2023-10-24T15:34:43.703Z,93565.41
2023-10-24T15:37:11.148Z,93561.56
2023-10-24T15:39:38.488Z,93562.09
2023-10-24T15:42:05.938Z,93561.16
2023-10-24T15:44:34.463Z,93565.81
2023-10-24T15:47:01.775Z,93568.06
2023-10-24T15:49:28.912Z,93566.56
2023-10-24T15:51:55.925Z,93569.81
2023-10-24T15:54:22.960Z,93570.81
2023-10-24T15:56:49.999Z,93578.88
2023-10-24T15:59:17.258Z,93579.50
2023-10-24T16:01:47.026Z,93583.91
2023-10-24T16:04:14.242Z,93573.59
2023-10-24T16:06:41.319Z,93569.22
2023-10-24T16:09:08.555Z,93556.03
2023-10-24T16:11:35.543Z,93557.69
2023-10-24T16:14:04.270Z,93563.69
2023-10-24T16:16:31.480Z,93564.91
2023-10-24T16:19:01.923Z,93565.72
2023-10-24T16:21:29.624Z,93574.13
2023-10-24T16:23:57.173Z,93584.13
2023-10-24T16:26:24.312Z,93583.13
2023-10-24T16:28:51.534Z,93592.69
2023-10-24T16:31:19.683Z,93590.28
2023-10-24T16:33:46.816Z,93587.91
2023-10-24T16:36:15.330Z,93584.50
2023-10-24T16:38:42.272Z,93574.47
2023-10-24T16:41:09.483Z,93564.28
2023-10-24T16:43:36.537Z,93556.13
2023-10-24T16:46:03.657Z,93551.13
2023-10-24T16:48:32.868Z,93551.13
2023-10-24T16:51:00.009Z,93559.28
2023-10-24T16:53:28.417Z,93551.72
2023-10-24T16:55:56.421Z,93548.34
2023-10-24T16:58:23.649Z,93544.16
2023-10-24T17:00:50.814Z,93538.34
2023-10-24T17:03:18.212Z,93547.53
2023-10-24T17:05:45.492Z,93542.53
2023-10-24T17:08:12.915Z,93547.94
2023-10-24T17:10:41.923Z,93537.94
2023-10-24T17:13:09.224Z,93543.91
2023-10-24T17:15:36.726Z,93541.91
2023-10-24T17:18:04.271Z,93541.91
2023-10-24T17:20:35.560Z,93537.88
2023-10-24T17:23:03.391Z,93542.06
2023-10-24T17:25:30.515Z,93540.84
2023-10-24T17:27:59.510Z,93533.47
2023-10-24T17:30:27.093Z,93529.41
2023-10-24T17:32:55.360Z,93538.56
2023-10-24T17:35:22.689Z,93529.78
2023-10-24T17:37:49.842Z,93533.19
2023-10-24T17:40:16.856Z,93534.78
2023-10-24T17:42:45.527Z,93525.63
2023-10-24T17:45:14.072Z,93516.81
2023-10-24T17:47:41.194Z,93516.03
2023-10-24T17:50:08.897Z,93510.81
2023-10-24T17:52:35.879Z,93513.75
2023-10-24T17:55:02.911Z,93518.75
2023-10-24T17:57:29.867Z,93508.19
2023-10-24T17:59:57.399Z,93509.56
2023-10-24T18:02:25.880Z,93501.56
2023-10-24T18:04:53.035Z,93503.53
2023-10-24T18:07:27.973Z,93505.31
2023-10-24T18:09:55.741Z,93502.94
2023-10-24T18:12:22.751Z,93501.34
2023-10-24T18:14:49.946Z,93501.88
2023-10-24T18:17:17.160Z,93496.25
2023-10-24T18:19:45.911Z,93500.06
2023-10-24T18:22:13.048Z,93501.31
2023-10-24T18:24:40.487Z,93509.28
2023-10-24T18:27:07.655Z,93507.91
2023-10-24T18:29:37.165Z,93504.31
2023-10-24T18:32:05.398Z,93512.47
2023-10-24T18:34:32.408Z,93515.16
2023-10-24T18:37:00.973Z,93512.19
2023-10-24T18:39:28.105Z,93513.63
2023-10-24T18:41:55.094Z,93508.66
2023-10-24T18:44:22.114Z,93503.22
2023-10-24T18:46:49.145Z,93506.41
2023-10-24T18:49:16.424Z,93506.84
2023-10-24T18:51:43.657Z,93503.84
2023-10-24T18:54:11.985Z,93500.75
2023-10-24T18:56:40.187Z,93505.28
2023-10-24T18:59:07.110Z,93500.63
2023-10-24T19:01:34.230Z,93501.13
2023-10-24T19:04:01.769Z,93493.69
2023-10-24T19:06:29.070Z,93494.34
2023-10-24T19:08:56.214Z,93493.63
2023-10-24T19:11:25.182Z,93485.09
2023-10-24T19:13:53.034Z,93471.41
2023-10-24T19:16:20.814Z,93479.16
2023-10-24T19:18:48.447Z,93474.34
2023-10-24T19:21:16.317Z,93468.81
2023-10-24T19:23:43.859Z,93469.66
2023-10-24T19:26:12.402Z,93457.34
2023-10-24T19:28:41.496Z,93452.00
2023-10-24T19:31:10.069Z,93456.81
2023-10-24T19:33:38.259Z,93449.69
2023-10-24T19:36:07.173Z,93453.50
2023-10-24T19:38:35.923Z,93441.13
2023-10-24T19:41:04.831Z,93446.91
2023-10-24T19:43:32.449Z,93452.22
2023-10-24T19:46:04.996Z,93449.84
2023-10-24T19:48:33.700Z,93437.03
2023-10-24T19:51:01.039Z,93439.25
2023-10-24T19:53:28.538Z,93423.06
2023-10-24T19:55:57.251Z,93416.44
2023-10-24T19:58:26.747Z,93410.22
2023-10-24T20:00:54.302Z,93405.06
2023-10-24T20:03:23.289Z,93403.84
2023-10-24T20:05:51.671Z,93414.75
2023-10-24T20:08:18.468Z,93407.25
2023-10-24T20:12:32.428Z,93393.91
2023-10-24T20:13:33.173Z,93404.88
2023-10-24T20:16:01.557Z,93408.63
2023-10-24T20:18:30.793Z,93396.41
2023-10-24T20:20:58.333Z,93404.13
2023-10-24T20:23:25.943Z,93407.69
2023-10-24T20:25:53.164Z,93413.59
2023-10-24T20:28:21.121Z,93399.84
2023-10-24T20:30:48.393Z,93392.91
2023-10-24T20:33:15.847Z,93393.25
2023-10-24T20:35:44.458Z,93386.88
2023-10-24T20:38:11.649Z,93394.06
2023-10-24T20:40:38.567Z,93379.06
2023-10-24T20:43:05.756Z,93379.00
2023-10-24T20:45:32.818Z,93356.13
2023-10-24T20:48:00.024Z,93345.91
2023-10-24T20:50:27.434Z,93352.59
2023-10-24T20:52:56.220Z,93348.84
2023-10-24T20:55:23.211Z,93353.63
2023-10-24T20:57:50.319Z,93362.25
2023-10-24T21:00:18.536Z,93356.13
2023-10-24T21:02:45.684Z,93344.50
2023-10-24T21:05:14.226Z,93349.09
2023-10-24T21:07:41.208Z,93358.41
2023-10-24T21:10:13.287Z,93358.25
2023-10-24T21:12:40.820Z,93357.44
2023-10-24T21:15:08.921Z,93362.28
2023-10-24T21:17:36.261Z,93358.16
2023-10-24T21:20:04.186Z,93359.66
2023-10-24T21:22:31.213Z,93349.19
2023-10-24T21:24:58.295Z,93358.66
2023-10-24T21:27:26.854Z,93352.03
2023-10-24T21:29:53.932Z,93339.91
2023-10-24T21:32:20.941Z,93333.34
2023-10-24T21:34:52.016Z,93330.94
2023-10-24T21:37:19.371Z,93321.63
2023-10-24T21:39:46.325Z,93320.69
2023-10-24T21:42:13.352Z,93315.53
2023-10-24T21:44:50.528Z,93319.78
2023-10-24T21:47:18.577Z,93319.84
2023-10-24T21:49:45.627Z,93319.84
2023-10-24T21:52:12.696Z,93313.38
2023-10-24T21:54:39.743Z,93323.94
2023-10-24T21:57:06.835Z,93320.56
2023-10-24T21:59:33.954Z,93319.72
2023-10-24T22:02:02.427Z,93309.19
2023-10-24T22:04:29.651Z,93307.50
2023-10-24T22:06:56.951Z,93309.53
2023-10-24T22:09:24.002Z,93312.19
2023-10-24T22:11:51.023Z,93303.63
2023-10-24T22:14:18.123Z,93300.81
2023-10-24T22:16:45.208Z,93302.59
2023-10-24T22:19:13.753Z,93311.69
2023-10-24T22:21:40.864Z,93308.59
2023-10-24T22:24:08.344Z,93303.78
2023-10-24T22:26:35.267Z,93309.75
2023-10-24T22:29:02.262Z,93307.94
2023-10-24T22:31:29.441Z,93295.22
2023-10-24T22:33:56.499Z,93290.22
2023-10-24T22:36:25.013Z,93297.28
2023-10-24T22:38:52.066Z,93303.72
2023-10-24T22:41:19.159Z,93304.09
2023-10-24T22:43:46.161Z,93304.28
2023-10-24T22:46:13.331Z,93309.88
2023-10-24T22:48:40.438Z,93311.47
2023-10-24T22:51:07.517Z,93298.75
2023-10-24T22:53:37.528Z,93293.25
2023-10-24T22:56:04.967Z,93288.13
2023-10-24T22:58:31.980Z,93275.88
2023-10-24T23:00:59.038Z,93272.59
2023-10-24T23:03:26.247Z,93274.09
2023-10-24T23:05:57.297Z,93282.03
2023-10-24T23:08:24.287Z,93278.44
2023-10-24T23:10:52.648Z,93293.03
2023-10-24T23:13:19.712Z,93289.56
2023-10-24T23:15:46.826Z,93299.44
2023-10-24T23:18:14.211Z,93303.88
2023-10-24T23:20:41.358Z,93297.75
2023-10-24T23:23:08.341Z,93313.22
2023-10-24T23:25:35.391Z,93309.19
2023-10-24T23:28:04.056Z,93306.31
2023-10-24T23:30:31.456Z,93320.63
2023-10-24T23:32:58.679Z,93304.72
2023-10-24T23:35:25.791Z,93317.06
2023-10-24T23:37:52.875Z,93299.00
2023-10-24T23:40:20.046Z,93294.88
2023-10-24T23:42:47.213Z,93271.72
2023-10-24T23:45:16.217Z,93298.03
2023-10-24T23:47:43.488Z,93288.94
2023-10-24T23:50:10.927Z,93288.72
2023-10-24T23:52:37.955Z,93288.66
2023-10-24T23:55:05.812Z,93296.94
2023-10-24T23:57:32.962Z,93290.19
